Time;durP1;ratioP1;P1;durP2;ratioP2;P2;SDS_P1;SDS_P2;PMS_P1;PMS_P2;Temp;Humidity;BMP_temperature;BMP_pressure;BME280_temperature;BME280_humidity;BME280_pressure;Samples;Min_cycle;Max_cycle;Signal;HPM_P1;HPM_P2
2022/12/21 00:02:12;;;;;;;;;;;;;;;;;;6151415;23;20433;-88
2022/12/21 00:04:38;;;;;;;;;;;;;;;;;;6148975;23;20230;-87
2022/12/21 00:07:04;;;;;;;;;;;;;;;;;;6174912;23;19916;-87
2022/12/21 00:09:30;;;;;;;;;;;;;;;;;;6153523;23;19926;-87
2022/12/21 00:11:56;;;;;;;;;;;;;;;;;;6175754;23;19970;-88
2022/12/21 00:14:22;;;;;;;;;;;;;;;;;;6151746;23;19926;-87
2022/12/21 00:16:48;;;;;;;;;;;;;;;;;;6150149;23;19995;-87
2022/12/21 00:19:14;;;;;;;;;;;;;;;;;;6153261;23;20274;-88
2022/12/21 00:21:40;;;;;;;;;;;;;;;;;;6154504;23;19924;-88
2022/12/21 00:24:06;;;;;;;;;;;;;;;;;;6150869;23;19997;-88
2022/12/21 00:26:32;;;;;;;;;;;;;;;;;;6149082;23;19958;-88
2022/12/21 00:28:58;;;;;;;;;;;;;;;;;;6199104;23;19927;-88
2022/12/21 00:31:24;;;;;;;;;;;;;;;;;;6147637;23;19920;-88
2022/12/21 00:33:50;;;;;;;;;;;;;;;;;;6171582;23;19923;-87
2022/12/21 00:36:16;;;;;;;;;;;;;;;;;;6174516;23;19924;-87
2022/12/21 00:38:42;;;;;;;;;;;;;;;;;;6172397;23;19920;-88
2022/12/21 00:41:08;;;;;;;;;;;;;;;;;;6150199;23;19955;-87
2022/12/21 00:43:34;;;;;;;;;;;;;;;;;;6151888;23;19927;-88
2022/12/21 00:45:59;;;;;;;;;;;;;;;;;;6173017;23;19920;-87
2022/12/21 00:48:25;;;;;;;;;;;;;;;;;;6147908;23;19920;-88
2022/12/21 00:50:51;;;;;;;;;;;;;;;;;;6169625;23;19934;-88
2022/12/21 00:53:17;;;;;;;;;;;;;;;;;;6172391;23;19920;-88
2022/12/21 00:55:43;;;;;;;;;;;;;;;;;;6146578;23;19927;-88
2022/12/21 00:58:09;;;;;;;;;;;;;;;;;;6150959;23;19920;-88
2022/12/21 01:00:35;;;;;;;;;;;;;;;;;;6149407;23;19974;-87
2022/12/21 01:03:01;;;;;;;;;;;;;;;;;;6147784;23;19994;-87
2022/12/21 01:05:28;;;;;;;;;;;;;;;;;;6172070;23;19920;-88
2022/12/21 01:07:57;;;;;;;;;;;;;;;;;;6169823;23;20368;-88
2022/12/21 01:10:23;;;;;;;;;;;;;;;;;;6173806;23;19919;-88
2022/12/21 01:12:49;;;;;;;;;;;;;;;;;;6168110;23;19920;-88
2022/12/21 01:15:15;;;;;;;;;;;;;;;;;;6145765;23;19924;-88
2022/12/21 01:17:41;;;;;;;;;;;;;;;;;;6144767;23;20304;-88
2022/12/21 01:20:07;;;;;;;;;;;;;;;;;;6148468;23;19958;-88
2022/12/21 01:22:33;;;;;;;;;;;;;;;;;;6172544;23;19920;-87
2022/12/21 01:24:59;;;;;;;;;;;;;;;;;;6170238;23;19963;-87
2022/12/21 01:27:24;;;;;;;;;;;;;;;;;;6148192;23;19923;-88
2022/12/21 01:29:50;;;;;;;;;;;;;;;;;;6144487;23;19926;-88
2022/12/21 01:32:16;;;;;;;;;;;;;;;;;;6149575;23;19916;-88
2022/12/21 01:34:42;;;;;;;;;;;;;;;;;;6168421;23;20341;-88
2022/12/21 01:37:08;;;;;;;;;;;;;;;;;;6147952;23;19916;-88
2022/12/21 01:39:34;;;;;;;;;;;;;;;;;;6151464;23;19999;-88
2022/12/21 01:42:00;;;;;;;;;;;;;;;;;;6141057;23;19924;-88
2022/12/21 01:44:26;;;;;;;;;;;;;;;;;;6171303;23;19927;-88
2022/12/21 01:46:52;;;;;;;;;;;;;;;;;;6196600;23;19944;-88
2022/12/21 01:49:18;;;;;;;;;;;;;;;;;;6198013;23;19927;-87
2022/12/21 01:51:44;;;;;;;;;;;;;;;;;;6175347;23;19924;-88
2022/12/21 01:54:10;;;;;;;;;;;;;;;;;;6174276;23;20593;-88
2022/12/21 01:56:36;;;;;;;;;;;;;;;;;;6200537;23;19920;-88
2022/12/21 01:59:02;;;;;;;;;;;;;;;;;;6170569;23;19930;-88
2022/12/21 02:01:30;;;;;;;;;;;;;;;;;;6197379;23;19924;-88
2022/12/21 02:03:56;;;;;;;;;;;;;;;;;;6169072;23;19919;-88
2022/12/21 02:06:22;;;;;;;;;;;;;;;;;;6197701;23;19922;-88
2022/12/21 02:08:48;;;;;;;;;;;;;;;;;;6170182;23;19927;-88
2022/12/21 02:11:14;;;;;;;;;;;;;;;;;;6173015;23;19920;-88
2022/12/21 02:13:43;;;;;;;;;;;;;;;;;;6199349;23;19926;-88
2022/12/21 02:16:09;;;;;;;;;;;;;;;;;;6174757;23;19920;-88
2022/12/21 02:18:35;;;;;;;;;;;;;;;;;;6199989;23;19920;-88
2022/12/21 02:21:01;;;;;;;;;;;;;;;;;;6197927;23;19924;-88
2022/12/21 02:23:27;;;;;;;;;;;;;;;;;;6175845;23;19924;-88
2022/12/21 02:25:52;;;;;;;;;;;;;;;;;;6170379;23;19926;-88
2022/12/21 02:28:18;;;;;;;;;;;;;;;;;;6174830;23;19916;-88
2022/12/21 02:30:44;;;;;;;;;;;;;;;;;;6194771;23;19932;-88
2022/12/21 02:33:10;;;;;;;;;;;;;;;;;;6175147;23;19998;-88
2022/12/21 02:35:36;;;;;;;;;;;;;;;;;;6174200;23;20149;-88
2022/12/21 02:38:02;;;;;;;;;;;;;;;;;;6171108;23;19919;-88
2022/12/21 02:40:28;;;;;;;;;;;;;;;;;;6173115;23;19947;-88
2022/12/21 02:45:39;;;;;;;;;;;;;;;;;;6197873;23;20399;-88
2022/12/21 02:48:05;;;;;;;;;;;;;;;;;;6195693;23;19920;-88
2022/12/21 02:50:31;;;;;;;;;;;;;;;;;;6200186;23;19920;-88
2022/12/21 02:52:57;;;;;;;;;;;;;;;;;;6172452;23;19927;-88
2022/12/21 02:55:23;;;;;;;;;;;;;;;;;;6174618;23;19926;-88
2022/12/21 02:57:49;;;;;;;;;;;;;;;;;;6172060;23;19920;-88
2022/12/21 03:00:15;;;;;;;;;;;;;;;;;;6174304;23;19926;-88
2022/12/21 03:02:41;;;;;;;;;;;;;;;;;;6197178;23;19924;-89
2022/12/21 03:05:12;;;;;;;;;;;;;;;;;;6198704;23;19994;-88
2022/12/21 03:07:38;;;;;;;;;;;;;;;;;;6174102;23;19916;-88
2022/12/21 03:10:04;;;;;;;;;;;;;;;;;;6169473;23;19927;-88
2022/12/21 03:12:30;;;;;;;;;;;;;;;;;;6197589;23;19919;-88
2022/12/21 03:14:56;;;;;;;;;;;;;;;;;;6193397;23;19951;-88
2022/12/21 03:17:22;;;;;;;;;;;;;;;;;;6197249;23;19974;-88
2022/12/21 03:19:48;;;;;;;;;;;;;;;;;;6169985;23;19916;-88
2022/12/21 03:22:14;;;;;;;;;;;;;;;;;;6199875;23;19984;-88
2022/12/21 03:24:43;;;;;;;;;;;;;;;;;;6172973;23;20327;-88
2022/12/21 03:27:10;;;;;;;;;;;;;;;;;;6171726;23;20343;-88
2022/12/21 03:29:36;;;;;;;;;;;;;;;;;;6198826;23;19959;-88
2022/12/21 03:32:02;;;;;;;;;;;;;;;;;;6194156;23;20560;-88
2022/12/21 03:34:28;;;;;;;;;;;;;;;;;;6194937;23;19927;-88
2022/12/21 03:36:54;;;;;;;;;;;;;;;;;;6196909;23;19916;-88
2022/12/21 03:39:23;;;;;;;;;;;;;;;;;;6171688;23;19929;-88
2022/12/21 03:41:49;;;;;;;;;;;;;;;;;;6196505;23;19956;-88
2022/12/21 03:44:15;;;;;;;;;;;;;;;;;;6173259;23;19923;-88
2022/12/21 03:46:41;;;;;;;;;;;;;;;;;;6169889;23;20352;-88
2022/12/21 03:49:07;;;;;;;;;;;;;;;;;;6169317;23;19915;-88
2022/12/21 03:51:33;;;;;;;;;;;;;;;;;;6173342;23;20388;-89
2022/12/21 03:53:59;;;;;;;;;;;;;;;;;;6169349;23;20613;-88
2022/12/21 03:56:25;;;;;;;;;;;;;;;;;;6173230;23;19923;-88
2022/12/21 03:58:51;;;;;;;;;;;;;;;;;;6194050;23;19920;-88
2022/12/21 04:01:17;;;;;;;;;;;;;;;;;;6196857;23;19923;-88
2022/12/21 04:03:43;;;;;;;;;;;;;;;;;;6170760;23;19963;-88
2022/12/21 04:06:09;;;;;;;;;;;;;;;;;;6196610;23;19920;-87
2022/12/21 04:08:34;;;;;;;;;;;;;;;;;;6198054;23;20336;-87
2022/12/21 04:11:00;;;;;;;;;;;;;;;;;;6168686;23;20824;-87
2022/12/21 04:13:26;;;;;;;;;;;;;;;;;;6196452;23;19920;-88
2022/12/21 04:16:13;;;;;;;;;;;;;;;;;;6170029;23;19922;-88
2022/12/21 04:21:23;;;;;;;;;;;;;;;;;;6198327;23;19931;-88
2022/12/21 04:29:19;;;;;;;;;;;;;;;;;;6198400;23;19942;-88
2022/12/21 04:31:45;;;;;;;;;;;;;;;;;;6172849;23;19920;-88
2022/12/21 04:34:11;;;;;;;;;;;;;;;;;;6200118;23;19915;-87
2022/12/21 04:39:22;;;;;;;;;;;;;;;;;;6198577;23;19955;-88
2022/12/21 04:41:48;;;;;;;;;;;;;;;;;;6195799;23;20254;-87
2022/12/21 04:44:13;;;;;;;;;;;;;;;;;;6174005;23;19943;-87
2022/12/21 04:46:42;;;;;;;;;;;;;;;;;;6198553;23;19920;-87
2022/12/21 04:49:08;;;;;;;;;;;;;;;;;;6174447;23;20606;-87
2022/12/21 04:51:34;;;;;;;;;;;;;;;;;;6173138;23;19926;-87
2022/12/21 04:54:00;;;;;;;;;;;;;;;;;;6170856;23;20026;-87
2022/12/21 04:56:26;;;;;;;;;;;;;;;;;;6175600;23;19920;-87
2022/12/21 04:58:52;;;;;;;;;;;;;;;;;;6172597;23;19974;-87
2022/12/21 05:01:18;;;;;;;;;;;;;;;;;;6200583;23;19919;-87
2022/12/21 05:03:44;;;;;;;;;;;;;;;;;;6195903;23;19920;-87
2022/12/21 05:06:10;;;;;;;;;;;;;;;;;;6201456;23;19931;-87
2022/12/21 05:08:36;;;;;;;;;;;;;;;;;;6173431;23;19920;-87
2022/12/21 05:11:02;;;;;;;;;;;;;;;;;;6175079;23;20230;-87
2022/12/21 05:13:28;;;;;;;;;;;;;;;;;;6176028;23;19920;-87
2022/12/21 05:15:54;;;;;;;;;;;;;;;;;;6197052;23;19950;-87
2022/12/21 05:18:20;;;;;;;;;;;;;;;;;;6200727;23;19915;-87
2022/12/21 05:20:46;;;;;;;;;;;;;;;;;;6174734;23;19924;-88
2022/12/21 05:23:12;;;;;;;;;;;;;;;;;;6177250;23;19947;-87
2022/12/21 05:25:37;;;;;;;;;;;;;;;;;;6175175;23;19982;-87
2022/12/21 05:28:03;;;;;;;;;;;;;;;;;;6200192;23;19920;-87
2022/12/21 05:30:29;;;;;;;;;;;;;;;;;;6175038;23;20301;-88
2022/12/21 05:32:55;;;;;;;;;;;;;;;;;;6173916;23;20849;-87
2022/12/21 05:35:21;;;;;;;;;;;;;;;;;;6200194;23;19920;-87
2022/12/21 05:37:47;;;;;;;;;;;;;;;;;;6172606;23;19927;-87
2022/12/21 05:40:14;;;;;;;;;;;;;;;;;;6199331;23;19992;-88
2022/12/21 05:42:40;;;;;;;;;;;;;;;;;;6199288;23;19934;-88
2022/12/21 05:45:06;;;;;;;;;;;;;;;;;;6174632;23;19920;-88
2022/12/21 05:47:32;;;;;;;;;;;;;;;;;;6174265;23;20249;-88
2022/12/21 05:49:58;;;;;;;;;;;;;;;;;;6171838;23;20296;-88
2022/12/21 05:52:24;;;;;;;;;;;;;;;;;;6173502;23;20234;-87
2022/12/21 05:54:50;;;;;;;;;;;;;;;;;;6192978;23;19920;-87
2022/12/21 05:57:16;;;;;;;;;;;;;;;;;;6196224;23;19926;-87
2022/12/21 05:59:42;;;;;;;;;;;;;;;;;;6196119;23;20043;-87
2022/12/21 06:02:08;;;;;;;;;;;;;;;;;;6170953;23;19967;-87
2022/12/21 06:04:36;;;;;;;;;;;;;;;;;;6172377;23;20615;-88
2022/12/21 06:07:02;;;;;;;;;;;;;;;;;;6174713;23;19920;-87
2022/12/21 06:09:28;;;;;;;;;;;;;;;;;;6176564;23;19920;-88
2022/12/21 06:11:54;;;;;;;;;;;;;;;;;;6199672;23;20412;-88
2022/12/21 06:14:20;;;;;;;;;;;;;;;;;;6202836;23;20254;-88
2022/12/21 06:16:46;;;;;;;;;;;;;;;;;;6172116;23;20030;-88
2022/12/21 06:19:12;;;;;;;;;;;;;;;;;;6203265;23;20129;-89
2022/12/21 06:21:38;;;;;;;;;;;;;;;;;;6175622;23;19970;-89
2022/12/21 06:24:04;;;;;;;;;;;;;;;;;;6170105;23;19928;-89
2022/12/21 06:26:30;;;;;;;;;;;;;;;;;;6174400;23;19919;-88
2022/12/21 06:28:56;;;;;;;;;;;;;;;;;;6199653;23;19920;-89
2022/12/21 06:31:23;;;;;;;;;;;;;;;;;;6174902;23;19920;-88
2022/12/21 06:33:49;;;;;;;;;;;;;;;;;;6197104;23;19951;-89
2022/12/21 06:36:15;;;;;;;;;;;;;;;;;;6175099;23;19924;-88
2022/12/21 06:38:41;;;;;;;;;;;;;;;;;;6173462;23;19943;-88
2022/12/21 06:41:07;;;;;;;;;;;;;;;;;;6174315;23;19920;-88
2022/12/21 06:43:33;;;;;;;;;;;;;;;;;;6200334;23;19923;-88
2022/12/21 06:45:59;;;;;;;;;;;;;;;;;;6171227;23;19959;-88
2022/12/21 06:48:25;;;;;;;;;;;;;;;;;;6199933;23;20355;-88
2022/12/21 06:50:51;;;;;;;;;;;;;;;;;;6171748;23;19924;-87
2022/12/21 06:53:17;;;;;;;;;;;;;;;;;;6200349;23;20218;-88
2022/12/21 06:55:42;;;;;;;;;;;;;;;;;;6196914;23;19970;-88
2022/12/21 06:58:08;;;;;;;;;;;;;;;;;;6173790;23;19920;-88
2022/12/21 07:00:34;;;;;;;;;;;;;;;;;;6173497;23;19927;-88
2022/12/21 07:03:00;;;;;;;;;;;;;;;;;;6172586;23;19931;-88
2022/12/21 07:05:26;;;;;;;;;;;;;;;;;;6201615;23;19989;-88
2022/12/21 07:07:52;;;;;;;;;;;;;;;;;;6172741;23;20253;-88
2022/12/21 07:10:18;;;;;;;;;;;;;;;;;;6200060;23;19966;-88
2022/12/21 07:12:44;;;;;;;;;;;;;;;;;;6196966;23;19927;-88
2022/12/21 07:15:10;;;;;;;;;;;;;;;;;;6199988;23;20237;-88
2022/12/21 07:38:52;;;;;;;;;;;;;;;;;;6184767;22;19920;-89
2022/12/21 07:41:18;;;;;;;;;;;;;;;;;;6209679;23;19924;-89
2022/12/21 07:43:44;;;;;;;;;;;;;;;;;;6178464;23;19998;-89
2022/12/21 07:46:10;;;;;;;;;;;;;;;;;;6210006;23;19919;-88
2022/12/21 07:48:36;;;;;;;;;;;;;;;;;;6237798;23;19926;-88
2022/12/21 07:51:02;;;;;;;;;;;;;;;;;;6183024;23;19919;-89
2022/12/21 07:53:28;;;;;;;;;;;;;;;;;;6209855;23;19991;-89
2022/12/21 07:55:54;;;;;;;;;;;;;;;;;;6206890;23;19923;-89
2022/12/21 07:58:20;;;;;;;;;;;;;;;;;;6185318;23;19927;-89
2022/12/21 08:00:46;;;;;;;;;;;;;;;;;;6206860;23;19920;-89
2022/12/21 08:03:12;;;;;;;;;;;;;;;;;;6184361;23;19927;-89
2022/12/21 08:05:38;;;;;;;;;;;;;;;;;;6182505;23;19955;-88
2022/12/21 08:08:04;;;;;;;;;;;;;;;;;;6182054;23;19920;-89
2022/12/21 08:10:30;;;;;;;;;;;;;;;;;;6208174;23;19966;-89
2022/12/21 08:12:56;;;;;;;;;;;;;;;;;;6233146;23;19927;-89
2022/12/21 08:15:22;;;;;;;;;;;;;;;;;;6185364;23;19916;-89
2022/12/21 08:17:48;;;;;;;;;;;;;;;;;;6181705;23;19980;-90
2022/12/21 08:20:14;;;;;;;;;;;;;;;;;;6186189;23;20421;-89
2022/12/21 08:22:43;;;;;;;;;;;;;;;;;;6185439;23;19923;-89
2022/12/21 08:25:09;;;;;;;;;;;;;;;;;;6210155;23;19916;-89
2022/12/21 08:27:34;;;;;;;;;;;;;;;;;;6184064;23;20332;-89
2022/12/21 08:30:00;;;;;;;;;;;;;;;;;;6183107;23;20304;-89
2022/12/21 08:32:26;;;;;;;;;;;;;;;;;;6184511;23;20296;-89
2022/12/21 08:34:52;;;;;;;;;;;;;;;;;;6181605;23;19954;-89
2022/12/21 08:37:19;;;;;;;;;;;;;;;;;;6182828;23;19919;-89
2022/12/21 08:39:44;;;;;;;;;;;;;;;;;;6176344;23;19931;-89
2022/12/21 08:42:12;;;;;;;;;;;;;;;;;;6205183;23;19920;-89
2022/12/21 08:44:38;;;;;;;;;;;;;;;;;;6209466;23;19922;-89
2022/12/21 08:47:06;;;;;;;;;;;;;;;;;;6181633;23;19920;-89
2022/12/21 08:49:32;;;;;;;;;;;;;;;;;;6211223;23;19994;-89
2022/12/21 08:51:58;;;;;;;;;;;;;;;;;;6180790;23;20663;-90
2022/12/21 08:54:25;;;;;;;;;;;;;;;;;;6183873;23;19920;-89
2022/12/21 08:56:51;;;;;;;;;;;;;;;;;;6206908;23;19916;-89
2022/12/21 08:59:17;;;;;;;;;;;;;;;;;;6210127;23;19991;-89
2022/12/21 09:01:43;;;;;;;;;;;;;;;;;;6206112;23;19924;-90
2022/12/21 09:04:09;;;;;;;;;;;;;;;;;;6208685;23;19991;-89
2022/12/21 09:06:34;;;;;;;;;;;;;;;;;;6233529;23;19959;-89
2022/12/21 09:09:00;;;;;;;;;;;;;;;;;;6207908;23;19920;-89
2022/12/21 09:11:29;;;;;;;;;;;;;;;;;;6235935;23;19926;-89
2022/12/21 09:13:56;;;;;;;;;;;;;;;;;;6205599;23;19919;-89
2022/12/21 09:16:21;;;;;;;;;;;;;;;;;;6208496;23;19919;-89
2022/12/21 09:18:47;;;;;;;;;;;;;;;;;;6205205;23;19919;-89
2022/12/21 09:21:14;;;;;;;;;;;;;;;;;;6235287;22;19924;-90
2022/12/21 09:23:43;;;;;;;;;;;;;;;;;;6232188;23;20169;-89
2022/12/21 09:26:09;;;;;;;;;;;;;;;;;;6233406;23;19923;-90
2022/12/21 09:28:35;;;;;;;;;;;;;;;;;;6232462;23;19924;-90
2022/12/21 09:31:01;;;;;;;;;;;;;;;;;;6206337;23;19920;-89
2022/12/21 09:33:27;;;;;;;;;;;;;;;;;;6208891;23;19919;-89
2022/12/21 09:35:53;;;;;;;;;;;;;;;;;;6206910;23;19926;-89
2022/12/21 09:38:19;;;;;;;;;;;;;;;;;;6210206;23;19919;-90
2022/12/21 09:40:46;;;;;;;;;;;;;;;;;;6207201;23;19982;-89
2022/12/21 09:43:12;;;;;;;;;;;;;;;;;;6209156;23;20383;-89
2022/12/21 09:45:37;;;;;;;;;;;;;;;;;;6233218;23;19920;-89
2022/12/21 09:48:03;;;;;;;;;;;;;;;;;;6207037;23;20352;-89
2022/12/21 09:50:29;;;;;;;;;;;;;;;;;;6234837;23;19938;-90
2022/12/21 09:52:55;;;;;;;;;;;;;;;;;;6202368;23;19916;-89
2022/12/21 09:55:21;;;;;;;;;;;;;;;;;;6229468;23;19941;-90
2022/12/21 09:57:48;;;;;;;;;;;;;;;;;;6202150;23;20352;-89
2022/12/21 10:00:14;;;;;;;;;;;;;;;;;;6230111;23;19919;-89
2022/12/21 10:02:43;;;;;;;;;;;;;;;;;;6206316;23;19934;-89
2022/12/21 10:05:09;;;;;;;;;;;;;;;;;;6238013;23;20304;-89
2022/12/21 10:07:35;;;;;;;;;;;;;;;;;;6236748;23;19919;-89
2022/12/21 10:10:01;;;;;;;;;;;;;;;;;;6208733;23;19929;-89
2022/12/21 10:12:27;;;;;;;;;;;;;;;;;;6233856;23;20340;-88
2022/12/21 10:14:53;;;;;;;;;;;;;;;;;;6208499;23;19920;-89
2022/12/21 10:17:19;;;;;;;;;;;;;;;;;;6209605;23;20014;-88
2022/12/21 10:19:45;;;;;;;;;;;;;;;;;;6233261;23;20340;-89
2022/12/21 10:22:10;;;;;;;;;;;;;;;;;;6211539;23;19919;-89
2022/12/21 10:24:36;;;;;;;;;;;;;;;;;;6211272;23;20367;-90
2022/12/21 10:27:02;;;;;;;;;;;;;;;;;;6208164;23;19987;-89
2022/12/21 10:29:28;;;;;;;;;;;;;;;;;;6209551;23;19990;-89
2022/12/21 10:31:54;;;;;;;;;;;;;;;;;;6207903;23;19970;-89
2022/12/21 10:34:20;;;;;;;;;;;;;;;;;;6209727;23;19926;-89
2022/12/21 10:36:46;;;;;;;;;;;;;;;;;;6232759;23;19915;-89
2022/12/21 10:39:12;;;;;;;;;;;;;;;;;;6209727;23;19923;-89
2022/12/21 10:41:38;;;;;;;;;;;;;;;;;;6209151;23;19931;-89
2022/12/21 10:44:04;;;;;;;;;;;;;;;;;;6229582;23;19921;-89
2022/12/21 10:46:30;;;;;;;;;;;;;;;;;;6210437;23;19930;-89
2022/12/21 10:48:56;;;;;;;;;;;;;;;;;;6206468;23;19958;-89
2022/12/21 10:51:25;;;;;;;;;;;;;;;;;;6209940;23;19927;-89
2022/12/21 10:53:51;;;;;;;;;;;;;;;;;;6233567;23;19919;-89
2022/12/21 10:56:17;;;;;;;;;;;;;;;;;;6211986;23;20329;-89
2022/12/21 10:58:43;;;;;;;;;;;;;;;;;;6233070;23;19922;-89
2022/12/21 11:01:09;;;;;;;;;;;;;;;;;;6211410;23;19981;-89
2022/12/21 11:03:36;;;;;;;;;;;;;;;;;;6236020;23;19920;-89
2022/12/21 11:08:42;;;;;;;;;;;;;;;;;;6264091;22;20336;-90
2022/12/21 11:11:16;;;;;;;;;;;;;;;;;;6214005;22;19919;-91
2022/12/21 11:42:46;;;;;;;;;;;;;;;;;;6191725;22;20119;-88
2022/12/21 13:01:58;;;;;;;;;;;;;;;;;;6209729;23;20135;-88
2022/12/21 14:19:17;;;;;;;;;;;;;;;;;;6214454;22;20368;-90
2022/12/21 14:21:46;;;;;;;;;;;;;;;;;;6150936;23;20280;-91
2022/12/21 15:18:56;;;;;;;;;;;;;;;;;;6229930;22;19923;-88
2022/12/21 16:36:40;;;;;;;;;;;;;;;;;;6234002;22;19927;-87
2022/12/21 16:39:06;;;;;;;;;;;;;;;;;;6146512;23;19966;-87
2022/12/21 16:41:32;;;;;;;;;;;;;;;;;;6169994;23;19920;-87
2022/12/21 16:43:58;;;;;;;;;;;;;;;;;;6145914;23;19994;-87
2022/12/21 16:46:26;;;;;;;;;;;;;;;;;;6120817;23;20377;-87
2022/12/21 16:48:52;;;;;;;;;;;;;;;;;;6117966;23;20257;-87
2022/12/21 16:51:26;;;;;;;;;;;;;;;;;;6120013;23;20027;-87
2022/12/21 16:53:52;;;;;;;;;;;;;;;;;;6160795;23;19994;-87
2022/12/21 16:56:20;;;;;;;;;;;;;;;;;;6143529;23;19966;-87
2022/12/21 16:58:46;;;;;;;;;;;;;;;;;;6168093;23;19920;-87
2022/12/21 17:01:12;;;;;;;;;;;;;;;;;;6144304;23;19971;-87
2022/12/21 17:03:38;;;;;;;;;;;;;;;;;;6144391;23;19974;-87
2022/12/21 17:06:04;;;;;;;;;;;;;;;;;;6117344;23;19922;-87
2022/12/21 17:08:30;;;;;;;;;;;;;;;;;;6121900;23;20349;-87
2022/12/21 17:10:56;;;;;;;;;;;;;;;;;;6120424;23;19923;-87
2022/12/21 17:13:22;;;;;;;;;;;;;;;;;;6121682;23;19947;-87
2022/12/21 17:15:48;;;;;;;;;;;;;;;;;;6168368;23;19920;-87
2022/12/21 17:18:14;;;;;;;;;;;;;;;;;;6116516;23;19975;-87
2022/12/21 20:32:27;;;;;;;;;;;;;;;;;;6185000;23;19924;31
2022/12/21 22:06:53;;;;;;;;;;;;;;;;;;6168760;23;19920;-87
2022/12/21 22:09:19;;;;;;;;;;;;;;;;;;6123646;23;19927;-88
2022/12/21 22:11:47;;;;;;;;;;;;;;;;;;6168955;23;19986;-88
2022/12/21 22:14:14;;;;;;;;;;;;;;;;;;6118731;23;20399;-87
2022/12/21 22:16:40;;;;;;;;;;;;;;;;;;6122371;23;19920;-87
2022/12/21 22:19:08;;;;;;;;;;;;;;;;;;6170860;23;19925;-87
2022/12/21 22:32:42;;;;;;;;;;;;;;;;;;6140549;23;19924;-87
2022/12/21 22:43:38;;;;;;;;;;;;;;;;;;6139183;23;19927;-88
2022/12/21 22:46:05;;;;;;;;;;;;;;;;;;6136846;23;19921;-88
2022/12/21 22:48:34;;;;;;;;;;;;;;;;;;6090073;23;19920;-88
2022/12/21 22:51:01;;;;;;;;;;;;;;;;;;6139931;23;19927;-87
2022/12/21 22:53:28;;;;;;;;;;;;;;;;;;6092002;23;19924;-87
2022/12/21 22:55:56;;;;;;;;;;;;;;;;;;6087351;23;19916;-87
2022/12/21 22:58:23;;;;;;;;;;;;;;;;;;6142305;23;20326;-87
2022/12/21 23:00:50;;;;;;;;;;;;;;;;;;6138586;23;19928;-88
2022/12/21 23:03:17;;;;;;;;;;;;;;;;;;6115306;23;19931;-87
2022/12/21 23:05:44;;;;;;;;;;;;;;;;;;6090093;23;19921;-87
2022/12/21 23:08:11;;;;;;;;;;;;;;;;;;6088929;23;19932;-88
2022/12/21 23:10:38;;;;;;;;;;;;;;;;;;6089812;23;19917;-88
2022/12/21 23:15:53;;;;;;;;;;;;;;;;;;6109582;23;20301;-87
2022/12/21 23:18:32;;;;;;;;;;;;;;;;;;6089325;23;19942;-87
2022/12/21 23:29:20;;;;;;;;;;;;;;;;;;6110939;23;19921;-87
2022/12/21 23:43:12;;;;;;;;;;;;;;;;;;6108065;23;19925;-87
2022/12/21 23:45:38;;;;;;;;;;;;;;;;;;6084376;23;19921;-87
